Time;durP1;ratioP1;P1;durP2;ratioP2;P2;SDS_P1;SDS_P2;PMS_P1;PMS_P2;Temp;Humidity;BMP_temperature;BMP_pressure;BME280_temperature;BME280_humidity;BME280_pressure;Samples;Min_cycle;Max_cycle;Signal;HPM_P1;HPM_P2
2022/07/30 00:00:00;;;;;;;0.00;0.00;;;;;;;;;;5033300;28;20621;-85
2022/07/30 00:02:26;;;;;;;0.00;0.00;;;;;;;;;;5033291;28;20205;-85
2022/07/30 00:04:52;;;;;;;0.00;0.00;;;;;;;;;;5033174;28;20037;-85
2022/07/30 00:07:18;;;;;;;0.03;0.00;;;;;;;;;;5033277;28;20377;-84
2022/07/30 00:09:44;;;;;;;0.00;0.00;;;;;;;;;;5033065;28;20041;-85
2022/07/30 00:12:10;;;;;;;0.00;0.00;;;;;;;;;;5033171;28;20064;-85
2022/07/30 00:14:36;;;;;;;0.00;0.00;;;;;;;;;;5033023;28;20124;-85
2022/07/30 00:17:03;;;;;;;0.00;0.00;;;;;;;;;;5033360;28;20046;-84
2022/07/30 00:19:29;;;;;;;0.00;0.00;;;;;;;;;;5032837;28;20473;-85
2022/07/30 00:21:55;;;;;;;0.00;0.00;;;;;;;;;;5033024;28;20416;-85
2022/07/30 00:24:21;;;;;;;0.00;0.00;;;;;;;;;;5032042;28;20041;-84
2022/07/30 00:26:47;;;;;;;0.00;0.00;;;;;;;;;;5032831;28;20041;-85
2022/07/30 00:29:13;;;;;;;0.00;0.00;;;;;;;;;;5032407;28;20041;-85
2022/07/30 00:31:40;;;;;;;0.00;0.00;;;;;;;;;;5033062;28;20075;-85
2022/07/30 00:34:06;;;;;;;0.00;0.00;;;;;;;;;;5032889;28;20435;-85
2022/07/30 00:36:32;;;;;;;0.00;0.00;;;;;;;;;;5032838;28;20057;-85
2022/07/30 00:38:58;;;;;;;0.00;0.00;;;;;;;;;;5032483;28;20034;-85
2022/07/30 00:41:24;;;;;;;0.00;0.00;;;;;;;;;;5032693;28;20243;-85
2022/07/30 00:43:50;;;;;;;0.00;0.00;;;;;;;;;;5032343;28;20045;-85
2022/07/30 00:46:16;;;;;;;0.00;0.00;;;;;;;;;;5033094;28;20120;-85
2022/07/30 00:48:42;;;;;;;0.00;0.00;;;;;;;;;;5032274;28;20123;-85
2022/07/30 00:51:09;;;;;;;0.00;0.00;;;;;;;;;;5032564;28;20043;-85
2022/07/30 00:53:35;;;;;;;0.00;0.00;;;;;;;;;;5032075;28;20456;-85
2022/07/30 00:56:02;;;;;;;0.00;0.00;;;;;;;;;;5032205;28;20103;-85
2022/07/30 00:58:28;;;;;;;0.00;0.00;;;;;;;;;;5032009;28;20505;-85
2022/07/30 01:00:54;;;;;;;0.00;0.00;;;;;;;;;;5032171;28;20042;-85
2022/07/30 01:03:20;;;;;;;0.00;0.00;;;;;;;;;;5031969;28;20045;-85
2022/07/30 01:05:46;;;;;;;0.00;0.00;;;;;;;;;;5032081;28;20041;-85
2022/07/30 01:08:12;;;;;;;0.00;0.00;;;;;;;;;;5031929;28;20416;-85
2022/07/30 01:10:38;;;;;;;0.00;0.00;;;;;;;;;;5031742;28;20412;-85
2022/07/30 01:13:04;;;;;;;0.00;0.00;;;;;;;;;;5032064;28;20041;-85
2022/07/30 01:15:30;;;;;;;0.00;0.00;;;;;;;;;;5031743;28;20053;-85
2022/07/30 01:17:59;;;;;;;0.00;0.00;;;;;;;;;;5031935;28;20041;-85
2022/07/30 01:20:54;;;;;;;0.00;0.00;;;;;;;;;;5031606;28;20041;-85
2022/07/30 01:23:27;;;;;;;0.00;0.00;;;;;;;;;;5005874;28;20045;-86
2022/07/30 01:26:05;;;;;;;0.00;0.00;;;;;;;;;;5031891;28;20042;-85
2022/07/30 01:28:32;;;;;;;0.00;0.00;;;;;;;;;;5032029;28;20071;-87
2022/07/30 01:30:59;;;;;;;0.00;0.00;;;;;;;;;;5031449;28;20429;-86
2022/07/30 01:33:26;;;;;;;0.00;0.00;;;;;;;;;;5031941;28;20051;-86
2022/07/30 01:35:52;;;;;;;0.00;0.00;;;;;;;;;;5031543;28;20048;-87
2022/07/30 01:38:21;;;;;;;0.00;0.00;;;;;;;;;;5031742;28;20133;-87
2022/07/30 01:40:48;;;;;;;0.00;0.00;;;;;;;;;;5031742;28;20052;-85
2022/07/30 01:43:14;;;;;;;0.00;0.00;;;;;;;;;;5031830;28;20046;-86
2022/07/30 01:45:40;;;;;;;0.00;0.00;;;;;;;;;;5031538;28;20049;-86
2022/07/30 01:48:08;;;;;;;0.00;0.00;;;;;;;;;;5031759;28;20048;-85
2022/07/30 01:50:34;;;;;;;0.00;0.00;;;;;;;;;;5031170;28;20087;-85
2022/07/30 01:53:00;;;;;;;0.00;0.00;;;;;;;;;;5031717;28;20041;-86
2022/07/30 01:55:30;;;;;;;0.00;0.00;;;;;;;;;;5031304;28;20133;-87
2022/07/30 01:57:56;;;;;;;0.00;0.00;;;;;;;;;;5031373;28;20131;-86
2022/07/30 02:00:24;;;;;;;0.00;0.00;;;;;;;;;;5031082;28;20041;-85
2022/07/30 02:02:50;;;;;;;0.00;0.00;;;;;;;;;;5031273;28;20081;-86
2022/07/30 02:05:18;;;;;;;0.00;0.00;;;;;;;;;;5031544;28;20183;-86
2022/07/30 02:07:47;;;;;;;0.00;0.00;;;;;;;;;;5031457;28;20460;-85
2022/07/30 02:10:15;;;;;;;0.00;0.00;;;;;;;;;;5031360;28;20060;-86
2022/07/30 02:12:44;;;;;;;0.00;0.00;;;;;;;;;;5031276;28;20049;-85
2022/07/30 02:15:17;;;;;;;0.00;0.00;;;;;;;;;;5030985;28;20092;-85
2022/07/30 02:17:59;;;;;;;0.00;0.00;;;;;;;;;;5031150;28;20068;-86
2022/07/30 02:20:26;;;;;;;0.00;0.00;;;;;;;;;;5030964;28;20041;-85
2022/07/30 02:22:54;;;;;;;0.00;0.00;;;;;;;;;;5031087;28;20389;-86
2022/07/30 02:25:20;;;;;;;0.00;0.00;;;;;;;;;;5031097;28;20114;-86
2022/07/30 02:27:49;;;;;;;0.00;0.00;;;;;;;;;;5031638;28;20037;-85
2022/07/30 02:30:16;;;;;;;0.00;0.00;;;;;;;;;;5031327;28;20056;-87
2022/07/30 02:32:43;;;;;;;0.00;0.00;;;;;;;;;;5031383;28;20049;-86
2022/07/30 02:35:19;;;;;;;0.00;0.00;;;;;;;;;;5030789;28;20504;-86
2022/07/30 02:37:47;;;;;;;0.00;0.00;;;;;;;;;;5030947;28;20092;-85
2022/07/30 02:40:18;;;;;;;0.00;0.00;;;;;;;;;;5031089;28;20393;-86
2022/07/30 02:42:46;;;;;;;0.00;0.00;;;;;;;;;;5030865;28;20076;-85
2022/07/30 02:45:12;;;;;;;0.00;0.00;;;;;;;;;;5030920;28;20041;-85
2022/07/30 02:47:39;;;;;;;0.00;0.00;;;;;;;;;;5034283;28;20038;-85
2022/07/30 02:50:06;;;;;;;0.00;0.00;;;;;;;;;;5034587;28;20045;-85
2022/07/30 02:52:33;;;;;;;0.00;0.00;;;;;;;;;;5034767;28;20104;-86
2022/07/30 02:55:00;;;;;;;0.00;0.00;;;;;;;;;;5034564;28;20045;-86
2022/07/30 02:57:27;;;;;;;0.00;0.00;;;;;;;;;;5034626;28;20400;-86
2022/07/30 02:59:55;;;;;;;0.00;0.00;;;;;;;;;;5034446;28;20480;-85
2022/07/30 03:02:21;;;;;;;0.00;0.00;;;;;;;;;;5034453;28;20041;-85
2022/07/30 03:04:48;;;;;;;0.00;0.00;;;;;;;;;;5034484;28;20049;-86
2022/07/30 03:07:14;;;;;;;0.00;0.00;;;;;;;;;;5034731;28;20041;-85
2022/07/30 03:09:41;;;;;;;0.00;0.00;;;;;;;;;;5034178;28;20095;-85
2022/07/30 03:12:08;;;;;;;0.00;0.00;;;;;;;;;;5034429;28;20041;-85
2022/07/30 03:14:34;;;;;;;0.00;0.00;;;;;;;;;;5042408;28;20041;-89
2022/07/30 03:17:02;;;;;;;0.00;0.00;;;;;;;;;;5036228;28;20472;-85
2022/07/30 03:19:31;;;;;;;0.00;0.00;;;;;;;;;;5034263;28;20087;-85
2022/07/30 03:21:58;;;;;;;0.00;0.00;;;;;;;;;;5033968;28;20507;-85
2022/07/30 03:24:25;;;;;;;0.00;0.00;;;;;;;;;;5034459;28;20048;-86
2022/07/30 03:26:51;;;;;;;0.00;0.00;;;;;;;;;;5033952;28;20045;-85
2022/07/30 03:29:19;;;;;;;0.00;0.00;;;;;;;;;;5033871;28;20121;-85
2022/07/30 03:31:46;;;;;;;0.00;0.00;;;;;;;;;;5033862;28;20120;-86
2022/07/30 03:34:12;;;;;;;0.00;0.00;;;;;;;;;;5034090;28;20057;-86
2022/07/30 03:36:40;;;;;;;0.00;0.00;;;;;;;;;;5033835;28;20124;-85
2022/07/30 03:39:06;;;;;;;0.00;0.00;;;;;;;;;;5033815;28;20041;-85
2022/07/30 03:41:33;;;;;;;0.00;0.00;;;;;;;;;;5033598;28;20045;-86
2022/07/30 03:43:59;;;;;;;0.00;0.00;;;;;;;;;;5033732;28;20046;-85
2022/07/30 03:46:26;;;;;;;0.00;0.00;;;;;;;;;;5033523;28;20041;-85
2022/07/30 03:48:53;;;;;;;0.00;0.00;;;;;;;;;;5033821;28;20137;-86
2022/07/30 03:51:20;;;;;;;0.00;0.00;;;;;;;;;;5033377;28;20045;-86
2022/07/30 03:53:46;;;;;;;0.00;0.00;;;;;;;;;;5033507;28;20140;-85
2022/07/30 03:56:13;;;;;;;0.00;0.00;;;;;;;;;;5033298;28;20388;-86
2022/07/30 03:58:40;;;;;;;0.00;0.00;;;;;;;;;;5032321;28;20041;-85
2022/07/30 04:01:06;;;;;;;0.00;0.00;;;;;;;;;;5033178;28;20048;-85
2022/07/30 04:03:32;;;;;;;0.00;0.00;;;;;;;;;;5033232;28;20045;-86
2022/07/30 04:05:59;;;;;;;0.00;0.00;;;;;;;;;;5033317;28;20041;-86
2022/07/30 04:08:25;;;;;;;0.00;0.00;;;;;;;;;;5033195;28;20038;-86
2022/07/30 04:10:51;;;;;;;0.00;0.00;;;;;;;;;;5033231;28;20076;-85
2022/07/30 04:13:17;;;;;;;0.00;0.00;;;;;;;;;;5033195;28;20127;-86
2022/07/30 04:15:48;;;;;;;0.00;0.00;;;;;;;;;;5032857;28;20457;-86
2022/07/30 04:18:16;;;;;;;0.00;0.00;;;;;;;;;;5033020;28;20401;-86
2022/07/30 04:20:44;;;;;;;0.00;0.00;;;;;;;;;;5033035;28;20037;-86
2022/07/30 04:23:10;;;;;;;0.00;0.00;;;;;;;;;;5032926;28;20037;-86
2022/07/30 04:25:36;;;;;;;0.00;0.00;;;;;;;;;;5032692;28;20052;-86
2022/07/30 04:28:04;;;;;;;0.00;0.00;;;;;;;;;;5032924;28;20389;-86
2022/07/30 04:30:32;;;;;;;0.00;0.00;;;;;;;;;;5032600;28;20433;-85
2022/07/30 04:32:58;;;;;;;0.00;0.00;;;;;;;;;;5033167;28;20166;-86
2022/07/30 04:35:27;;;;;;;0.00;0.00;;;;;;;;;;5032725;28;20041;-86
2022/07/30 04:37:53;;;;;;;0.00;0.00;;;;;;;;;;5032691;28;20041;-86
2022/07/30 04:40:19;;;;;;;0.00;0.00;;;;;;;;;;5032602;28;20041;-86
2022/07/30 04:42:45;;;;;;;0.00;0.00;;;;;;;;;;5032468;28;20124;-86
2022/07/30 04:45:12;;;;;;;0.00;0.00;;;;;;;;;;5032803;28;20132;-85
2022/07/30 04:47:38;;;;;;;0.00;0.00;;;;;;;;;;5032257;28;20073;-86
2022/07/30 04:50:05;;;;;;;0.00;0.00;;;;;;;;;;5033759;28;20044;-86
2022/07/30 04:52:32;;;;;;;0.00;0.00;;;;;;;;;;5048690;28;20045;-87
2022/07/30 04:55:01;;;;;;;0.00;0.00;;;;;;;;;;5032392;28;20436;-87
2022/07/30 04:57:27;;;;;;;0.00;0.00;;;;;;;;;;5032082;28;20499;-86
2022/07/30 04:59:53;;;;;;;0.00;0.00;;;;;;;;;;5032544;28;20041;-86
2022/07/30 05:02:21;;;;;;;0.00;0.00;;;;;;;;;;5032246;28;20038;-86
2022/07/30 05:04:48;;;;;;;0.00;0.00;;;;;;;;;;5032174;28;20160;-85
2022/07/30 05:07:14;;;;;;;0.00;0.00;;;;;;;;;;5031967;28;20319;-87
2022/07/30 05:09:41;;;;;;;0.00;0.00;;;;;;;;;;5031814;28;20041;-88
2022/07/30 05:12:07;;;;;;;0.00;0.00;;;;;;;;;;5031789;28;20492;-86
2022/07/30 05:14:33;;;;;;;0.00;0.00;;;;;;;;;;5032099;28;20045;-86
2022/07/30 05:16:59;;;;;;;0.00;0.00;;;;;;;;;;5031836;28;20033;-86
2022/07/30 05:19:25;;;;;;;0.00;0.00;;;;;;;;;;5032461;28;20041;-87
2022/07/30 05:21:51;;;;;;;0.15;0.03;;;;;;;;;;5031693;28;20461;-87
2022/07/30 05:24:17;;;;;;;0.00;0.00;;;;;;;;;;5031865;28;20499;-87
2022/07/30 05:26:43;;;;;;;0.00;0.00;;;;;;;;;;5031618;28;20392;-87
2022/07/30 05:29:09;;;;;;;0.00;0.00;;;;;;;;;;5031389;28;20084;-86
2022/07/30 05:31:35;;;;;;;0.00;0.00;;;;;;;;;;5031674;28;20424;-86
2022/07/30 05:34:01;;;;;;;0.00;0.00;;;;;;;;;;5031684;28;20048;-87
2022/07/30 05:36:27;;;;;;;0.00;0.00;;;;;;;;;;5031877;28;20037;-87
2022/07/30 05:38:53;;;;;;;0.00;0.00;;;;;;;;;;5031505;28;20421;-86
2022/07/30 05:41:19;;;;;;;0.00;0.00;;;;;;;;;;5031294;28;20041;-86
2022/07/30 05:43:45;;;;;;;0.00;0.00;;;;;;;;;;5031794;28;20181;-86
2022/07/30 05:46:11;;;;;;;0.00;0.00;;;;;;;;;;5031196;28;20102;-86
2022/07/30 05:48:38;;;;;;;0.00;0.00;;;;;;;;;;5031374;28;20037;-86
2022/07/30 05:51:04;;;;;;;0.00;0.00;;;;;;;;;;5031400;28;20041;-86
2022/07/30 05:53:30;;;;;;;0.00;0.00;;;;;;;;;;5031136;28;20041;-86
2022/07/30 05:55:56;;;;;;;0.00;0.00;;;;;;;;;;5031267;28;20045;-86
2022/07/30 05:58:22;;;;;;;0.00;0.00;;;;;;;;;;5031041;28;20182;-86
2022/07/30 06:00:48;;;;;;;0.10;0.00;;;;;;;;;;5031216;28;20406;-86
2022/07/30 06:03:15;;;;;;;0.00;0.00;;;;;;;;;;5031269;28;20055;-86
2022/07/30 06:05:41;;;;;;;0.00;0.00;;;;;;;;;;5031135;28;20041;-85
2022/07/30 06:08:07;;;;;;;0.00;0.00;;;;;;;;;;5030875;28;20121;-86
2022/07/30 06:10:33;;;;;;;0.00;0.00;;;;;;;;;;5031234;28;20116;-87
2022/07/30 06:12:59;;;;;;;0.00;0.00;;;;;;;;;;5030935;28;20480;-86
2022/07/30 06:15:25;;;;;;;0.00;0.00;;;;;;;;;;5030995;28;20124;-85
2022/07/30 06:17:51;;;;;;;0.00;0.00;;;;;;;;;;5031143;28;20041;-86
2022/07/30 06:20:18;;;;;;;0.00;0.00;;;;;;;;;;5030966;28;20428;-85
2022/07/30 06:22:44;;;;;;;0.00;0.00;;;;;;;;;;5030207;28;20120;-86
2022/07/30 06:25:11;;;;;;;0.00;0.00;;;;;;;;;;5030901;28;20073;-85
2022/07/30 06:27:37;;;;;;;0.00;0.00;;;;;;;;;;5030631;28;20084;-85
2022/07/30 06:30:04;;;;;;;0.00;0.00;;;;;;;;;;5031617;28;20488;-92
2022/07/30 06:32:30;;;;;;;0.00;0.00;;;;;;;;;;5031436;28;20052;-89
2022/07/30 06:34:56;;;;;;;0.00;0.00;;;;;;;;;;5031505;28;20075;-89
2022/07/30 06:37:22;;;;;;;0.00;0.00;;;;;;;;;;5031437;28;20124;-87
2022/07/30 06:39:48;;;;;;;0.00;0.00;;;;;;;;;;5031602;28;20377;-89
2022/07/30 06:42:14;;;;;;;0.00;0.00;;;;;;;;;;5031147;28;20556;-85
2022/07/30 06:44:40;;;;;;;0.00;0.00;;;;;;;;;;5031374;28;20044;-91
2022/07/30 06:47:06;;;;;;;0.00;0.00;;;;;;;;;;5031775;28;20041;-86
2022/07/30 06:49:33;;;;;;;0.00;0.00;;;;;;;;;;5031897;28;20068;-90
2022/07/30 06:51:59;;;;;;;0.00;0.00;;;;;;;;;;5032136;28;20056;-89
2022/07/30 06:54:25;;;;;;;0.00;0.00;;;;;;;;;;5032035;28;20034;-89
2022/07/30 06:56:51;;;;;;;0.00;0.00;;;;;;;;;;5031230;28;20595;-88
2022/07/30 06:59:17;;;;;;;0.00;0.00;;;;;;;;;;5032022;28;20041;-92
2022/07/30 07:01:44;;;;;;;0.00;0.00;;;;;;;;;;5029065;28;20043;-88
2022/07/30 07:04:10;;;;;;;0.00;0.00;;;;;;;;;;5012143;28;20048;-91
2022/07/30 07:06:37;;;;;;;0.00;0.00;;;;;;;;;;5029227;28;20042;-91
2022/07/30 07:09:03;;;;;;;0.00;0.00;;;;;;;;;;5012326;28;20096;-90
2022/07/30 07:11:29;;;;;;;0.00;0.00;;;;;;;;;;5013855;28;20045;-90
2022/07/30 07:13:55;;;;;;;0.00;0.00;;;;;;;;;;5020938;28;20068;-88
2022/07/30 07:16:24;;;;;;;0.00;0.00;;;;;;;;;;5028983;28;20053;-90
2022/07/30 07:18:51;;;;;;;0.00;0.00;;;;;;;;;;5012204;28;20049;-90
2022/07/30 07:21:17;;;;;;;0.00;0.00;;;;;;;;;;5012433;28;20037;-89
2022/07/30 07:23:43;;;;;;;0.00;0.00;;;;;;;;;;5029152;28;20050;-90
2022/07/30 07:26:09;;;;;;;0.00;0.00;;;;;;;;;;5012380;28;20034;-89
2022/07/30 07:28:35;;;;;;;0.05;0.00;;;;;;;;;;5028728;28;20057;-89
2022/07/30 07:31:02;;;;;;;0.00;0.00;;;;;;;;;;5029032;28;20085;-90
2022/07/30 07:33:28;;;;;;;0.20;0.13;;;;;;;;;;5014976;28;20049;-90
2022/07/30 07:35:54;;;;;;;0.00;0.00;;;;;;;;;;5016429;28;20084;-90
2022/07/30 07:38:21;;;;;;;0.00;0.00;;;;;;;;;;5015710;28;20060;-90
2022/07/30 07:40:47;;;;;;;0.00;0.00;;;;;;;;;;5032926;28;20045;-93
2022/07/30 07:43:14;;;;;;;0.00;0.00;;;;;;;;;;5036146;28;20503;-92
2022/07/30 07:45:41;;;;;;;0.00;0.00;;;;;;;;;;5037396;28;20041;-94
2022/07/30 07:48:07;;;;;;;0.00;0.00;;;;;;;;;;5041527;28;20045;-95
2022/07/30 07:50:33;;;;;;;0.00;0.00;;;;;;;;;;5037397;28;20021;-94
2022/07/30 07:52:59;;;;;;;0.00;0.00;;;;;;;;;;5035344;28;20034;-89
2022/07/30 07:55:25;;;;;;;0.00;0.00;;;;;;;;;;5019854;28;20056;-91
2022/07/30 07:57:51;;;;;;;0.00;0.00;;;;;;;;;;5018837;28;20041;-89
2022/07/30 08:00:17;;;;;;;0.00;0.00;;;;;;;;;;5036265;28;20052;-89
2022/07/30 08:02:44;;;;;;;0.00;0.00;;;;;;;;;;5035141;28;20069;-91
2022/07/30 08:05:11;;;;;;;0.00;0.00;;;;;;;;;;5035413;28;20038;-91
2022/07/30 08:07:37;;;;;;;0.00;0.00;;;;;;;;;;5018448;28;20499;-89
2022/07/30 08:10:04;;;;;;;0.00;0.00;;;;;;;;;;5034713;28;20477;-90
2022/07/30 08:12:30;;;;;;;0.00;0.00;;;;;;;;;;5019355;28;20038;-89
2022/07/30 08:14:56;;;;;;;0.00;0.00;;;;;;;;;;5035265;28;20160;-90
2022/07/30 08:17:22;;;;;;;0.00;0.00;;;;;;;;;;5034735;28;20060;-90
2022/07/30 08:19:48;;;;;;;0.00;0.00;;;;;;;;;;5035520;28;20171;-86
2022/07/30 08:22:14;;;;;;;0.25;0.17;;;;;;;;;;5034737;28;20037;-91
2022/07/30 08:24:40;;;;;;;0.00;0.00;;;;;;;;;;5035266;28;20034;-89
2022/07/30 08:27:06;;;;;;;0.00;0.00;;;;;;;;;;5035007;28;20116;-89
2022/07/30 08:29:32;;;;;;;0.00;0.00;;;;;;;;;;5034662;28;20116;-90
2022/07/30 08:31:58;;;;;;;0.00;0.00;;;;;;;;;;5035505;28;20049;-91
2022/07/30 08:34:24;;;;;;;0.00;0.00;;;;;;;;;;5035643;28;20594;-91
2022/07/30 08:36:50;;;;;;;0.00;0.00;;;;;;;;;;5035590;28;20034;-89
2022/07/30 08:39:16;;;;;;;0.00;0.00;;;;;;;;;;5033643;28;20037;-89
2022/07/30 08:41:42;;;;;;;0.00;0.00;;;;;;;;;;5034038;28;20091;-88
2022/07/30 08:44:12;;;;;;;0.00;0.00;;;;;;;;;;5033397;28;20041;-88
2022/07/30 08:46:41;;;;;;;0.00;0.00;;;;;;;;;;5035178;28;20045;-90
2022/07/30 08:49:07;;;;;;;0.00;0.00;;;;;;;;;;5034048;28;20060;-90
2022/07/30 08:51:34;;;;;;;0.00;0.00;;;;;;;;;;5035319;28;20049;-91
2022/07/30 08:54:00;;;;;;;0.00;0.00;;;;;;;;;;5035398;28;20515;-92
2022/07/30 08:56:27;;;;;;;0.00;0.00;;;;;;;;;;5035023;28;20045;-92
2022/07/30 08:58:57;;;;;;;0.25;0.08;;;;;;;;;;5037134;28;20048;-89
2022/07/30 09:01:26;;;;;;;0.00;0.00;;;;;;;;;;5202231;22;21190;-92
2022/07/30 09:03:52;;;;;;;0.00;0.00;;;;;;;;;;5082625;28;20079;-92
2022/07/30 09:06:18;;;;;;;0.00;0.00;;;;;;;;;;5079399;28;20044;-92
2022/07/30 09:08:44;;;;;;;0.00;0.00;;;;;;;;;;5089133;28;20095;-91
2022/07/30 09:11:10;;;;;;;0.00;0.00;;;;;;;;;;5097466;28;20035;-93
2022/07/30 09:13:43;;;;;;;0.00;0.00;;;;;;;;;;5097180;28;20035;-92
2022/07/30 09:16:20;;;;;;;0.00;0.00;;;;;;;;;;5097793;28;20035;-92
2022/07/30 09:18:49;;;;;;;0.00;0.00;;;;;;;;;;5097761;28;20043;-93
2022/07/30 09:21:22;;;;;;;0.00;0.00;;;;;;;;;;5082902;28;20043;-89
2022/07/30 09:24:02;;;;;;;0.00;0.00;;;;;;;;;;5097391;28;20062;-92
2022/07/30 09:26:32;;;;;;;0.00;0.00;;;;;;;;;;5080647;28;20527;-92
2022/07/30 09:29:15;;;;;;;0.00;0.00;;;;;;;;;;5096981;28;20031;-92
2022/07/30 09:31:54;;;;;;;0.00;0.00;;;;;;;;;;5097499;28;20035;-93
2022/07/30 09:34:34;;;;;;;0.00;0.00;;;;;;;;;;5097389;28;20040;-91
2022/07/30 09:37:09;;;;;;;0.00;0.00;;;;;;;;;;5097311;28;20036;-92
2022/07/30 09:39:37;;;;;;;0.00;0.00;;;;;;;;;;5096823;28;20043;-94
2022/07/30 09:42:04;;;;;;;0.00;0.00;;;;;;;;;;5097008;28;20500;-95
2022/07/30 09:44:31;;;;;;;0.00;0.00;;;;;;;;;;5096336;28;20035;-92
2022/07/30 09:46:57;;;;;;;0.00;0.00;;;;;;;;;;5096695;28;20031;-93
2022/07/30 09:49:24;;;;;;;0.00;0.00;;;;;;;;;;5079832;28;20039;-93
2022/07/30 09:51:51;;;;;;;0.00;0.00;;;;;;;;;;5097072;28;20096;-91
2022/07/30 09:54:17;;;;;;;0.00;0.00;;;;;;;;;;5079707;28;20046;-93
2022/07/30 09:56:44;;;;;;;0.00;0.00;;;;;;;;;;5096196;28;20044;-90
2022/07/30 09:59:29;;;;;;;0.00;0.00;;;;;;;;;;5125514;23;20056;-90
2022/07/30 10:01:56;;;;;;;0.00;0.00;;;;;;;;;;5090965;28;20134;-90
2022/07/30 10:04:26;;;;;;;0.00;0.00;;;;;;;;;;5092914;28;20543;-90
2022/07/30 10:06:52;;;;;;;0.00;0.00;;;;;;;;;;5076152;28;20120;-90
2022/07/30 10:09:29;;;;;;;0.00;0.00;;;;;;;;;;5093077;28;20046;-91
2022/07/30 10:11:56;;;;;;;0.00;0.00;;;;;;;;;;5093283;28;20046;-92
2022/07/30 10:14:24;;;;;;;0.00;0.00;;;;;;;;;;5093009;28;20483;-90
2022/07/30 10:16:53;;;;;;;0.00;0.00;;;;;;;;;;5076947;28;20050;-89
2022/07/30 10:19:22;;;;;;;0.00;0.00;;;;;;;;;;5094503;28;20035;-91
2022/07/30 10:21:49;;;;;;;0.00;0.00;;;;;;;;;;5082111;28;20036;-89
2022/07/30 10:24:19;;;;;;;0.00;0.00;;;;;;;;;;5100915;28;20519;-91
2022/07/30 10:26:47;;;;;;;0.00;0.00;;;;;;;;;;5094718;28;20052;-91
2022/07/30 10:29:21;;;;;;;0.00;0.00;;;;;;;;;;5093683;28;20037;-91
2022/07/30 10:31:47;;;;;;;0.00;0.00;;;;;;;;;;5094076;28;20032;-90
2022/07/30 10:34:25;;;;;;;0.00;0.00;;;;;;;;;;5095850;28;20044;-92
2022/07/30 10:37:01;;;;;;;0.00;0.00;;;;;;;;;;5095101;28;20169;-90
2022/07/30 10:40:02;;;;;;;0.00;0.00;;;;;;;;;;5080117;28;20078;-91
2022/07/30 10:42:55;;;;;;;0.00;0.00;;;;;;;;;;5044971;28;20048;-91
2022/07/30 10:46:00;;;;;;;0.00;0.00;;;;;;;;;;5096257;28;20047;-91
2022/07/30 10:48:41;;;;;;;0.00;0.00;;;;;;;;;;5099656;28;20467;-92
2022/07/30 10:51:07;;;;;;;0.00;0.00;;;;;;;;;;5108760;28;20044;-91
2022/07/30 10:53:53;;;;;;;0.00;0.00;;;;;;;;;;5103889;28;20471;-91
2022/07/30 10:56:57;;;;;;;0.00;0.00;;;;;;;;;;5097486;28;20040;-93
2022/07/30 10:59:24;;;;;;;0.00;0.00;;;;;;;;;;5064726;23;20055;-92
2022/07/30 11:01:55;;;;;;;0.00;0.00;;;;;;;;;;5116570;28;20054;-90
2022/07/30 11:04:50;;;;;;;0.00;0.00;;;;;;;;;;5138503;28;20043;-93
2022/07/30 11:07:26;;;;;;;0.00;0.00;;;;;;;;;;5127513;27;20043;-91
2022/07/30 11:09:53;;;;;;;0.00;0.00;;;;;;;;;;5120466;27;20042;-88
2022/07/30 11:12:38;;;;;;;0.00;0.00;;;;;;;;;;5120623;27;20047;-89
2022/07/30 11:15:04;;;;;;;0.00;0.00;;;;;;;;;;5120492;27;20043;-91
2022/07/30 11:17:50;;;;;;;0.15;0.10;;;;;;;;;;5120222;27;20078;-87
2022/07/30 11:20:19;;;;;;;0.00;0.00;;;;;;;;;;5108611;28;20044;-90
2022/07/30 11:22:48;;;;;;;0.00;0.00;;;;;;;;;;5116601;27;20097;-90
2022/07/30 11:25:26;;;;;;;0.00;0.00;;;;;;;;;;5119809;27;20050;-92
2022/07/30 11:27:52;;;;;;;0.00;0.00;;;;;;;;;;5120221;27;20035;-89
2022/07/30 11:30:21;;;;;;;0.00;0.00;;;;;;;;;;5119798;27;20378;-90
2022/07/30 11:32:51;;;;;;;0.20;0.00;;;;;;;;;;5119623;27;20039;-88
2022/07/30 11:35:17;;;;;;;0.00;0.00;;;;;;;;;;5119399;27;20084;-90
2022/07/30 11:38:05;;;;;;;0.00;0.00;;;;;;;;;;5122990;27;20500;-90
2022/07/30 11:40:32;;;;;;;0.00;0.00;;;;;;;;;;5119594;27;20043;-90
2022/07/30 11:43:17;;;;;;;0.00;0.00;;;;;;;;;;5119636;27;20104;-91
2022/07/30 11:45:44;;;;;;;0.00;0.00;;;;;;;;;;5119591;27;20069;-91
2022/07/30 11:48:11;;;;;;;0.00;0.00;;;;;;;;;;5115596;28;20031;-88
2022/07/30 11:50:38;;;;;;;0.00;0.00;;;;;;;;;;5116479;28;20032;-92
2022/07/30 11:53:05;;;;;;;0.00;0.00;;;;;;;;;;5119699;27;20044;-93
2022/07/30 11:55:33;;;;;;;0.00;0.00;;;;;;;;;;5128437;27;20046;-93
2022/07/30 11:58:00;;;;;;;0.00;0.00;;;;;;;;;;5130384;27;20360;-87
2022/07/30 12:00:33;;;;;;;0.00;0.00;;;;;;;;;;5125154;27;20142;-93
2022/07/30 12:02:59;;;;;;;0.00;0.00;;;;;;;;;;5122064;27;20046;-94
2022/07/30 12:05:26;;;;;;;0.00;0.00;;;;;;;;;;5120950;27;20439;-94
2022/07/30 12:07:58;;;;;;;0.00;0.00;;;;;;;;;;5122490;27;20031;-95
2022/07/30 12:10:24;;;;;;;0.00;0.00;;;;;;;;;;5121998;27;20050;-92
2022/07/30 12:12:50;;;;;;;0.00;0.00;;;;;;;;;;5121483;27;20038;-92
2022/07/30 12:15:30;;;;;;;0.00;0.00;;;;;;;;;;5120363;27;20129;-93
2022/07/30 12:17:57;;;;;;;0.00;0.00;;;;;;;;;;5120098;27;20039;-94
2022/07/30 12:20:23;;;;;;;0.00;0.00;;;;;;;;;;5118491;27;20035;-95
2022/07/30 12:22:49;;;;;;;0.00;0.00;;;;;;;;;;5120467;27;20401;-93
2022/07/30 12:25:15;;;;;;;0.00;0.00;;;;;;;;;;5120981;27;20039;-92
2022/07/30 12:27:48;;;;;;;0.00;0.00;;;;;;;;;;5126160;28;20031;-93
2022/07/30 12:30:15;;;;;;;0.00;0.00;;;;;;;;;;5122903;27;20031;-94
2022/07/30 12:32:41;;;;;;;0.00;0.00;;;;;;;;;;5128462;27;20046;-93
2022/07/30 12:35:08;;;;;;;0.00;0.00;;;;;;;;;;5128850;27;20051;-91
2022/07/30 12:37:34;;;;;;;0.00;0.00;;;;;;;;;;5122441;27;20039;-94
2022/07/30 12:40:06;;;;;;;0.00;0.00;;;;;;;;;;5119061;27;20054;-91
2022/07/30 12:42:32;;;;;;;0.00;0.00;;;;;;;;;;5119682;27;20038;-90
2022/07/30 12:44:58;;;;;;;0.00;0.00;;;;;;;;;;5119440;27;20035;-94
2022/07/30 12:47:28;;;;;;;0.00;0.00;;;;;;;;;;5118406;27;20035;-92
2022/07/30 12:49:56;;;;;;;0.00;0.00;;;;;;;;;;5118583;27;20050;-92
2022/07/30 12:52:40;;;;;;;0.00;0.00;;;;;;;;;;5118412;27;20039;-94
2022/07/30 12:55:07;;;;;;;0.10;0.10;;;;;;;;;;5118512;27;20494;-92
2022/07/30 12:57:52;;;;;;;0.00;0.00;;;;;;;;;;5117979;27;20081;-92
2022/07/30 13:00:19;;;;;;;0.00;0.00;;;;;;;;;;5118140;27;20059;-93
2022/07/30 13:02:45;;;;;;;0.00;0.00;;;;;;;;;;5120626;27;20039;-94
2022/07/30 13:05:11;;;;;;;0.00;0.00;;;;;;;;;;5116152;28;20049;-93
2022/07/30 13:07:51;;;;;;;0.00;0.00;;;;;;;;;;5095904;28;20032;-92
2022/07/30 13:10:17;;;;;;;0.00;0.00;;;;;;;;;;5109261;28;20067;-91
2022/07/30 13:12:44;;;;;;;0.00;0.00;;;;;;;;;;5112421;28;20043;-93
2022/07/30 13:15:16;;;;;;;0.00;0.00;;;;;;;;;;5106050;27;20043;-93
2022/07/30 13:17:42;;;;;;;0.00;0.00;;;;;;;;;;5100524;27;20035;-91
2022/07/30 13:20:09;;;;;;;0.00;0.00;;;;;;;;;;5114546;27;20039;-89
2022/07/30 13:22:35;;;;;;;0.00;0.00;;;;;;;;;;5097291;27;20497;-91
2022/07/30 13:25:01;;;;;;;0.00;0.00;;;;;;;;;;5116661;27;20066;-93
2022/07/30 13:27:28;;;;;;;0.00;0.00;;;;;;;;;;5113791;28;20036;-89
2022/07/30 13:29:54;;;;;;;0.00;0.00;;;;;;;;;;5114634;27;20043;-91
2022/07/30 13:32:20;;;;;;;0.00;0.00;;;;;;;;;;5116951;27;20039;-90
2022/07/30 13:34:46;;;;;;;0.00;0.00;;;;;;;;;;5100153;27;20031;-92
2022/07/30 13:37:12;;;;;;;0.00;0.00;;;;;;;;;;5116987;27;20397;-91
2022/07/30 13:39:38;;;;;;;0.00;0.00;;;;;;;;;;5117021;27;20035;-90
2022/07/30 13:42:04;;;;;;;0.00;0.00;;;;;;;;;;5117161;27;20107;-90
2022/07/30 13:44:30;;;;;;;0.00;0.00;;;;;;;;;;5100111;27;20481;-90
2022/07/30 13:46:56;;;;;;;0.00;0.00;;;;;;;;;;5117029;27;20039;-91
2022/07/30 13:49:22;;;;;;;0.10;0.00;;;;;;;;;;5099822;27;20052;-89
2022/07/30 13:51:48;;;;;;;0.00;0.00;;;;;;;;;;5116697;27;20077;-91
2022/07/30 13:54:14;;;;;;;0.00;0.00;;;;;;;;;;5116915;27;20042;-88
2022/07/30 13:56:40;;;;;;;0.00;0.00;;;;;;;;;;5116415;27;20050;-86
2022/07/30 13:59:06;;;;;;;0.00;0.00;;;;;;;;;;5099348;27;20115;-88
2022/07/30 14:01:32;;;;;;;0.00;0.00;;;;;;;;;;5099674;27;20122;-89
2022/07/30 14:03:58;;;;;;;0.00;0.00;;;;;;;;;;5116708;27;20229;-90
2022/07/30 14:06:24;;;;;;;0.00;0.00;;;;;;;;;;5116639;27;20039;-89
2022/07/30 14:08:51;;;;;;;0.00;0.00;;;;;;;;;;5099716;28;20092;-91
2022/07/30 14:11:17;;;;;;;0.00;0.00;;;;;;;;;;5116707;27;20035;-90
2022/07/30 14:13:43;;;;;;;0.00;0.00;;;;;;;;;;5116806;27;20045;-89
2022/07/30 14:16:09;;;;;;;0.00;0.00;;;;;;;;;;5116923;27;20092;-90
2022/07/30 14:18:35;;;;;;;0.00;0.00;;;;;;;;;;5116013;27;20039;-88
2022/07/30 14:21:01;;;;;;;0.00;0.00;;;;;;;;;;5115891;27;20039;-89
2022/07/30 14:23:28;;;;;;;0.00;0.00;;;;;;;;;;5115389;27;20126;-86
2022/07/30 14:25:54;;;;;;;0.10;0.00;;;;;;;;;;5116217;27;20050;-88
2022/07/30 14:28:20;;;;;;;0.00;0.00;;;;;;;;;;5116533;28;20058;-92
2022/07/30 14:30:46;;;;;;;0.00;0.00;;;;;;;;;;5116606;27;20478;-91
2022/07/30 14:33:11;;;;;;;0.00;0.00;;;;;;;;;;5116496;27;20045;-91
2022/07/30 14:35:38;;;;;;;0.00;0.00;;;;;;;;;;5107796;28;20052;-91
2022/07/30 14:38:04;;;;;;;0.00;0.00;;;;;;;;;;5108651;28;20062;-91
2022/07/30 14:40:30;;;;;;;0.00;0.00;;;;;;;;;;5116587;28;20035;-91
2022/07/30 14:42:56;;;;;;;0.00;0.00;;;;;;;;;;5118571;27;20039;-93
2022/07/30 14:45:22;;;;;;;0.00;0.00;;;;;;;;;;5121019;27;20119;-89
2022/07/30 14:47:48;;;;;;;0.00;0.00;;;;;;;;;;5120625;27;20492;-91